createdAt,value
2022-12-12T09:59:44.651Z,20.10
2022-12-12T10:03:12.360Z,23.38
2022-12-12T12:58:49.141Z,14.43
2022-12-12T13:01:47.067Z,19.00
2022-12-12T13:05:37.520Z,15.80
2022-12-12T13:09:12.143Z,16.98
2022-12-12T13:11:55.575Z,19.13
2022-12-12T13:14:46.407Z,21.13
2022-12-12T13:17:22.143Z,20.38
2022-12-12T13:20:03.740Z,21.05
2022-12-12T13:23:00.340Z,23.83
2022-12-12T13:25:47.186Z,28.98
2022-12-12T13:28:46.600Z,26.55
2022-12-12T13:31:52.646Z,35.10
2022-12-12T13:34:31.644Z,30.27
2022-12-12T13:37:02.260Z,38.28
2022-12-12T13:39:51.158Z,30.05
2022-12-12T13:42:28.623Z,36.67
2022-12-12T13:45:40.422Z,33.65
2022-12-12T13:51:56.941Z,32.03
2022-12-12T13:54:31.973Z,38.80
2022-12-12T13:57:57.078Z,36.60
2022-12-12T14:00:31.882Z,31.35
2022-12-12T14:03:31.373Z,34.55
2022-12-12T14:10:36.112Z,33.60
2022-12-12T14:13:55.469Z,28.63
2022-12-12T14:17:19.198Z,36.60
2022-12-12T14:20:07.191Z,33.65
2022-12-12T14:22:51.998Z,31.25
2022-12-12T14:26:02.401Z,31.52
2022-12-12T14:28:56.682Z,38.42
2022-12-12T14:31:35.128Z,33.42
2022-12-12T14:35:00.351Z,38.80
2022-12-12T14:38:00.790Z,35.70
2022-12-12T14:40:48.627Z,35.47
2022-12-12T14:43:25.461Z,36.00
2022-12-12T14:46:19.037Z,31.75
2022-12-12T14:53:03.071Z,32.53
2022-12-12T14:56:29.894Z,30.20
2022-12-12T14:59:16.258Z,34.50
2022-12-12T15:01:59.834Z,36.08
2022-12-12T15:04:40.752Z,34.05
2022-12-12T15:36:31.801Z,37.17
2022-12-12T15:39:17.342Z,41.88
2022-12-12T15:41:49.771Z,43.13
2022-12-12T15:44:22.090Z,39.40
2022-12-12T15:46:55.068Z,41.83
2022-12-12T15:49:58.068Z,46.92
2022-12-12T15:52:33.204Z,44.63
2022-12-12T15:55:05.263Z,51.95
2022-12-12T15:57:47.961Z,44.85
2022-12-12T16:00:41.972Z,43.05
2022-12-12T16:03:13.742Z,41.05
2022-12-12T16:05:45.186Z,46.50
2022-12-12T16:08:36.973Z,51.40
2022-12-12T16:11:32.078Z,44.63
2022-12-12T16:14:12.439Z,51.78
2022-12-12T16:17:10.363Z,42.10
2022-12-12T16:19:44.704Z,39.88
2022-12-12T16:22:45.393Z,42.40
2022-12-12T16:25:29.362Z,43.90
2022-12-12T16:47:13.555Z,40.40
2022-12-12T16:50:07.514Z,35.80
2022-12-12T16:52:59.081Z,41.65
2022-12-12T16:55:42.091Z,36.92
2022-12-12T17:13:00.009Z,35.13
2022-12-12T17:15:41.210Z,37.55
2022-12-12T17:18:08.945Z,39.53
2022-12-12T17:20:40.986Z,37.13
2022-12-12T17:23:38.795Z,40.00
2022-12-12T17:26:11.522Z,39.72
2022-12-12T17:28:39.197Z,39.95
2022-12-12T17:31:09.518Z,39.40
2022-12-12T17:33:42.334Z,31.88
2022-12-12T17:36:20.997Z,38.42
2022-12-12T17:38:49.002Z,37.05
2022-12-12T17:41:17.251Z,34.95
2022-12-12T17:43:44.942Z,31.45
2022-12-12T17:50:45.774Z,32.45
2022-12-12T17:53:54.271Z,36.03
2022-12-12T17:56:25.982Z,36.88
2022-12-12T17:58:54.680Z,33.80
2022-12-12T18:01:27.865Z,36.67
2022-12-12T18:03:56.451Z,35.55
2022-12-12T18:06:25.686Z,35.58
2022-12-12T18:09:01.226Z,35.47
2022-12-12T18:11:31.798Z,34.28
2022-12-12T18:14:02.133Z,35.30
2022-12-12T18:16:32.321Z,39.38
2022-12-12T18:19:01.316Z,41.50
2022-12-12T18:24:23.308Z,37.67
2022-12-12T18:27:30.444Z,37.33
2022-12-12T18:30:07.607Z,40.17
2022-12-12T18:35:30.755Z,28.63
2022-12-12T18:37:58.315Z,32.60
2022-12-12T18:40:25.914Z,39.55
2022-12-12T18:42:53.430Z,40.20
2022-12-12T18:45:20.962Z,35.38
2022-12-12T18:47:48.487Z,33.55
2022-12-12T18:50:16.299Z,38.58
2022-12-12T18:52:44.120Z,38.10
2022-12-12T18:55:11.700Z,30.15
2022-12-12T18:57:39.457Z,30.75
2022-12-12T19:00:17.310Z,30.58
2022-12-12T19:02:45.030Z,39.85
2022-12-12T19:05:13.577Z,25.67
2022-12-12T19:07:41.472Z,31.33
2022-12-12T19:10:09.284Z,29.73
2022-12-12T19:12:38.590Z,29.08
2022-12-12T19:15:16.839Z,34.17
2022-12-12T19:17:45.113Z,26.05
2022-12-12T19:20:13.064Z,37.33
2022-12-12T19:22:45.439Z,33.00
2022-12-12T19:25:15.598Z,35.40
2022-12-12T19:27:43.963Z,32.47
2022-12-12T19:30:13.319Z,44.05
2022-12-12T19:32:42.394Z,40.63
2022-12-12T19:35:10.552Z,43.67
2022-12-12T19:37:38.034Z,53.83
2022-12-12T19:40:06.260Z,34.25
2022-12-12T19:42:33.688Z,37.92
2022-12-12T19:45:01.216Z,34.05
2022-12-12T19:47:28.676Z,33.60
2022-12-12T19:49:56.258Z,34.90
2022-12-12T19:52:33.407Z,43.95
2022-12-12T19:55:02.194Z,37.15
2022-12-12T19:57:46.381Z,38.20
2022-12-12T20:00:20.048Z,36.17
2022-12-12T20:02:47.591Z,32.00
2022-12-12T20:05:18.725Z,37.40
2022-12-12T20:07:55.962Z,31.58
2022-12-12T20:10:24.742Z,30.85
2022-12-12T20:12:58.469Z,49.25
2022-12-12T20:15:30.303Z,35.75
2022-12-12T20:18:02.185Z,38.85
2022-12-12T20:20:29.756Z,35.35
2022-12-12T20:22:57.229Z,33.83
2022-12-12T20:25:25.397Z,33.20
2022-12-12T20:27:52.893Z,38.65
2022-12-12T20:30:20.889Z,32.42
2022-12-12T20:32:48.489Z,38.08
2022-12-12T20:35:16.063Z,40.72
2022-12-12T20:37:43.567Z,34.03
2022-12-12T20:40:12.930Z,28.27
2022-12-12T20:42:40.778Z,31.27
2022-12-12T20:45:08.607Z,28.88
2022-12-12T20:47:36.308Z,34.67
2022-12-12T20:50:05.046Z,34.03
2022-12-12T20:52:33.940Z,31.50
2022-12-12T20:55:01.452Z,27.02
2022-12-12T20:57:32.208Z,32.53
2022-12-12T20:59:59.966Z,40.90
2022-12-12T21:02:30.370Z,44.33
2022-12-12T21:04:58.155Z,51.10
2022-12-12T21:07:55.398Z,32.45
2022-12-12T21:10:24.248Z,39.70
2022-12-12T21:12:53.440Z,36.33
2022-12-12T21:15:41.729Z,34.97
2022-12-12T21:18:09.765Z,33.85
2022-12-12T21:20:37.569Z,31.63
2022-12-12T21:23:05.142Z,51.03
2022-12-12T21:25:35.380Z,47.90
2022-12-12T21:28:02.819Z,36.88
2022-12-12T21:30:30.266Z,33.28
2022-12-12T21:32:58.074Z,33.00
2022-12-12T21:35:25.641Z,35.78
2022-12-12T21:37:56.411Z,44.10
2022-12-12T21:40:24.195Z,33.60
2022-12-12T21:42:54.740Z,33.40
2022-12-12T21:45:22.504Z,36.13
2022-12-12T21:47:50.198Z,29.98
2022-12-12T21:50:17.873Z,34.22
2022-12-12T21:53:05.418Z,31.05
2022-12-12T21:55:37.613Z,31.67
2022-12-12T21:58:08.029Z,35.15
2022-12-12T22:00:42.612Z,38.63
2022-12-12T22:03:10.220Z,31.75
2022-12-12T22:05:37.729Z,35.17
2022-12-12T22:08:05.624Z,33.35
2022-12-12T22:10:36.719Z,28.40
2022-12-12T22:13:04.518Z,31.38
2022-12-12T22:15:32.085Z,32.42
2022-12-12T22:17:59.519Z,29.33
2022-12-12T22:20:27.106Z,31.77
2022-12-12T22:22:54.847Z,30.20
2022-12-12T22:25:22.822Z,26.05
2022-12-12T22:27:50.474Z,28.13
2022-12-12T22:30:18.036Z,37.00
2022-12-12T22:32:45.731Z,31.63
2022-12-12T22:35:13.719Z,25.75
2022-12-12T22:37:41.899Z,26.02
2022-12-12T22:40:10.159Z,28.23
2022-12-12T22:42:37.830Z,24.17
2022-12-12T22:45:05.844Z,26.35
2022-12-12T22:47:33.261Z,25.02
2022-12-12T22:50:00.670Z,24.58
2022-12-12T22:52:29.087Z,26.67
2022-12-12T22:54:56.511Z,24.55
2022-12-12T22:57:23.952Z,35.50
2022-12-12T22:59:51.408Z,39.28
2022-12-12T23:02:24.620Z,33.20
2022-12-12T23:04:52.770Z,33.30
2022-12-12T23:07:20.231Z,35.85
2022-12-12T23:09:52.678Z,33.83
2022-12-12T23:12:20.896Z,38.25
2022-12-12T23:14:48.661Z,42.08
2022-12-12T23:17:16.486Z,32.75
2022-12-12T23:19:45.053Z,36.60
2022-12-12T23:22:12.452Z,31.17
2022-12-12T23:24:39.978Z,35.35
2022-12-12T23:27:08.494Z,36.97
2022-12-12T23:29:36.008Z,29.92
2022-12-12T23:32:03.593Z,29.77
2022-12-12T23:34:31.265Z,38.05
2022-12-12T23:36:58.828Z,34.53
2022-12-12T23:39:27.904Z,33.40
2022-12-12T23:41:55.799Z,35.50
2022-12-12T23:44:24.490Z,30.67
2022-12-12T23:46:52.344Z,33.60
2022-12-12T23:49:22.532Z,34.85
2022-12-12T23:51:55.784Z,31.33
2022-12-12T23:54:35.044Z,30.83
2022-12-12T23:57:03.690Z,31.42
2022-12-12T23:59:31.278Z,31.88
